Time;durP1;ratioP1;P1;durP2;ratioP2;P2;SDS_P1;SDS_P2;PMS_P1;PMS_P2;Temp;Humidity;BMP_temperature;BMP_pressure;BME280_temperature;BME280_humidity;BME280_pressure;Samples;Min_cycle;Max_cycle;Signal;HPM_P1;HPM_P2
2022/08/12 00:43:43;;;;;;;4.35;3.47;;;;;;;17.95;53.67;101341.03;5073005;28;20401;-24
2022/08/12 00:48:53;;;;;;;3.90;3.60;;;;;;;17.89;53.35;101343.88;5076631;28;20085;-24
2022/08/12 00:51:19;;;;;;;4.07;3.72;;;;;;;17.85;53.45;101344.88;5038255;28;20029;-24
2022/08/12 00:53:44;;;;;;;3.60;3.30;;;;;;;17.82;53.45;101344.06;5058842;28;20110;-24
2022/08/12 00:56:09;;;;;;;3.58;3.28;;;;;;;17.81;53.08;101346.78;5069386;28;20044;-25
2022/08/12 00:58:36;;;;;;;3.95;3.55;;;;;;;17.75;53.25;101338.94;5076995;28;20062;-24
2022/08/12 01:01:06;;;;;;;3.65;3.35;;;;;;;17.70;53.19;101342.63;5069993;28;20024;-25
2022/08/12 01:11:51;;;;;;;3.90;3.50;;;;;;;17.51;53.12;101334.25;5071007;28;20070;-25
2022/08/12 01:14:24;;;;;;;3.95;3.55;;;;;;;17.49;53.50;101344.09;5061813;28;20028;-25
2022/08/12 01:16:52;;;;;;;6.35;3.40;;;;;;;17.47;53.04;101345.06;5090430;28;20032;-25
2022/08/12 01:19:22;;;;;;;4.60;3.78;;;;;;;17.40;53.09;101347.00;5051690;28;20029;-25
2022/08/12 01:21:57;;;;;;;3.88;3.58;;;;;;;17.35;53.08;101346.25;5055190;28;20043;-24
2022/08/12 01:24:28;;;;;;;3.60;3.30;;;;;;;17.30;53.17;101349.91;5080740;28;20031;-25
2022/08/12 01:26:53;;;;;;;;;;;;;;;17.27;53.31;101349.16;5092510;28;20028;-24
2022/08/12 01:29:28;;;;;;;4.32;3.30;;;;;;;17.21;53.13;101344.84;5081374;28;19935;-25
2022/08/12 01:31:56;;;;;;;3.50;3.15;;;;;;;17.18;53.31;101355.59;5083458;28;20038;-24
2022/08/12 01:34:23;;;;;;;3.78;3.38;;;;;;;17.14;53.58;101349.44;5066664;28;20430;-25
2022/08/12 01:36:57;;;;;;;3.97;3.58;;;;;;;17.12;53.50;101351.28;5063053;28;20110;-25
2022/08/12 01:39:29;;;;;;;3.75;3.45;;;;;;;17.07;53.73;101349.66;5051384;28;20055;-25
2022/08/12 01:41:59;;;;;;;3.42;3.13;;;;;;;17.03;53.83;101347.03;5072750;28;20021;-25
2022/08/12 01:44:26;;;;;;;3.78;3.47;;;;;;;16.95;54.12;101343.69;5057942;28;20021;-25
2022/08/12 01:46:57;;;;;;;3.95;3.40;;;;;;;16.93;54.17;101341.06;5057609;28;20453;-25
2022/08/12 01:49:41;;;;;;;3.75;3.45;;;;;;;16.99;54.38;101339.16;5049703;28;20055;-25
2022/08/12 01:52:19;;;;;;;3.90;3.60;;;;;;;16.94;54.42;101347.25;5072686;28;20066;-25
2022/08/12 01:54:44;;;;;;;4.03;3.45;;;;;;;16.86;54.25;101343.91;5055598;28;20485;-25
2022/08/12 01:57:18;;;;;;;4.10;3.80;;;;;;;16.81;54.23;101346.69;5075217;28;20040;-24
2022/08/12 01:59:58;;;;;;;4.05;3.75;;;;;;;16.80;54.53;101340.50;5076873;28;20070;-24
2022/08/12 02:02:30;;;;;;;4.17;3.40;;;;;;;16.76;54.46;101344.16;5049502;28;20025;-24
2022/08/12 02:11:30;;;;;;;3.80;3.42;;;;;;;16.63;54.67;101332.03;5076316;28;20066;-25
2022/08/12 02:14:19;;;;;;;4.20;3.90;;;;;;;16.61;54.62;101334.72;5056882;28;20035;-25
2022/08/12 02:16:48;;;;;;;4.25;3.72;;;;;;;16.58;54.41;101334.81;5043690;28;20032;-24
2022/08/12 02:19:34;;;;;;;3.97;3.65;;;;;;;16.52;54.39;101330.50;5066093;28;20024;-24
2022/08/12 02:22:27;;;;;;;3.70;3.40;;;;;;;16.53;54.24;101326.94;5059607;28;20024;-25
2022/08/12 02:24:58;;;;;;;5.47;3.38;;;;;;;16.47;53.76;101327.06;5075317;28;20020;-24
2022/08/12 02:27:26;;;;;;;3.88;3.58;;;;;;;16.45;53.84;101333.34;5063188;28;20474;-24
2022/08/12 02:29:52;;;;;;;4.47;3.80;;;;;;;16.41;53.78;101337.88;5077369;28;20043;-25
2022/08/12 02:32:17;;;;;;;3.75;3.25;;;;;;;16.34;53.65;101326.47;5076911;28;20024;-24
2022/08/12 02:34:43;;;;;;;4.72;3.33;;;;;;;16.30;53.99;101330.09;5067330;28;20413;-24
2022/08/12 02:37:14;;;;;;;3.22;2.90;;;;;;;16.29;53.95;101331.91;5073395;28;20103;-25
2022/08/12 02:39:45;;;;;;;3.17;2.97;;;;;;;16.27;53.80;101325.75;5077540;28;20104;-25
2022/08/12 02:42:13;;;;;;;3.30;3.00;;;;;;;16.21;53.91;101333.00;5059264;28;20032;-24
2022/08/12 02:44:39;;;;;;;3.25;2.72;;;;;;;16.16;54.01;101327.75;5060077;28;20386;-24
2022/08/12 02:47:06;;;;;;;3.38;3.08;;;;;;;16.17;54.49;101324.19;5044847;28;20085;-24
2022/08/12 02:49:34;;;;;;;3.28;3.08;;;;;;;16.11;54.53;101325.19;5046998;28;20169;-25
2022/08/12 02:51:59;;;;;;;3.35;3.15;;;;;;;16.09;54.46;101331.47;5082877;28;20044;-25
2022/08/12 02:54:25;;;;;;;3.60;3.30;;;;;;;16.00;54.67;101317.47;5050951;28;20529;-24
2022/08/12 02:56:51;;;;;;;3.53;3.33;;;;;;;16.05;54.71;101335.09;5060734;28;20032;-25
2022/08/12 02:59:18;;;;;;;3.42;3.13;;;;;;;15.98;54.84;101329.94;5083621;28;20032;-24
2022/08/12 03:01:50;;;;;;;3.72;3.30;;;;;;;15.96;54.74;101329.06;5061967;28;20081;-25
2022/08/12 03:04:43;;;;;;;3.42;3.13;;;;;;;15.91;54.51;101326.47;5085003;28;20379;-24
2022/08/12 03:07:23;;;;;;;3.72;3.42;;;;;;;15.90;54.66;101323.84;5060828;28;20052;-24
2022/08/12 03:09:54;;;;;;;3.42;3.13;;;;;;;15.84;54.45;101326.66;5063468;28;20489;-24
2022/08/12 03:12:23;;;;;;;3.58;3.38;;;;;;;15.84;54.46;101338.16;5059862;28;20032;-25
2022/08/12 03:14:50;;;;;;;4.78;3.38;;;;;;;15.80;54.32;101336.47;5082061;28;20389;-24
2022/08/12 03:17:24;;;;;;;4.20;3.53;;;;;;;15.77;54.33;101331.19;5073256;28;20466;-24
2022/08/12 03:19:52;;;;;;;3.33;3.03;;;;;;;15.78;54.26;101339.16;5065654;28;20032;-24
2022/08/12 03:22:19;;;;;;;3.55;3.13;;;;;;;15.74;53.68;101325.97;5068140;28;20091;-25
2022/08/12 03:24:45;;;;;;;3.20;2.95;;;;;;;15.71;54.28;101326.03;5062274;28;20422;-25
2022/08/12 03:27:13;;;;;;;3.42;3.13;;;;;;;15.64;54.09;101326.13;5063202;28;20025;-25
2022/08/12 03:29:39;;;;;;;3.63;3.25;;;;;;;15.61;53.90;101328.84;5064183;28;20031;-24
2022/08/12 03:32:05;;;;;;;3.60;3.00;;;;;;;15.61;54.26;101334.16;5069561;28;20162;-25
2022/08/12 03:34:35;;;;;;;3.17;2.88;;;;;;;15.53;54.55;101328.13;5081009;28;20112;-25
2022/08/12 03:37:01;;;;;;;3.40;3.10;;;;;;;15.55;54.40;101331.66;5088257;28;20016;-25
2022/08/12 03:42:10;;;;;;;3.35;3.05;;;;;;;15.45;54.56;101336.25;5069780;28;20036;-25
2022/08/12 04:01:42;;;;;;;4.15;3.50;;;;;;;15.26;55.27;101352.56;5056147;28;20031;-25
2022/08/12 04:04:09;;;;;;;3.38;3.17;;;;;;;15.23;55.33;101355.25;5057627;28;20151;-25
2022/08/12 04:06:40;;;;;;;3.63;3.33;;;;;;;15.26;55.10;101359.63;5079279;28;20024;-25
2022/08/12 04:09:05;;;;;;;;;;;;;;;15.23;55.36;101357.91;5062336;28;20032;-25
2022/08/12 04:14:19;;;;;;;3.75;3.22;;;;;;;15.18;55.04;101361.56;5078277;28;20131;-25
2022/08/12 04:16:48;;;;;;;4.05;3.65;;;;;;;15.17;55.12;101358.00;5062651;28;20021;-25
2022/08/12 04:19:14;;;;;;;4.15;3.22;;;;;;;15.14;55.03;101363.41;5076849;28;20496;-25
2022/08/12 04:21:40;;;;;;;3.60;3.30;;;;;;;15.08;54.79;101358.19;5073395;28;20493;-25
2022/08/12 04:24:05;;;;;;;4.72;3.53;;;;;;;15.05;54.62;101351.16;5084265;28;20024;-25
2022/08/12 04:26:31;;;;;;;5.85;3.17;;;;;;;15.03;54.87;101355.59;5093207;28;20494;-25
2022/08/12 04:28:57;;;;;;;3.65;3.40;;;;;;;14.93;55.23;101357.53;5093091;28;20085;-25
2022/08/12 04:31:34;;;;;;;3.65;3.35;;;;;;;14.90;55.27;101362.88;5074879;28;20030;-25
2022/08/12 04:34:01;;;;;;;3.53;3.22;;;;;;;14.89;55.49;101355.81;5067590;28;20052;-25
2022/08/12 04:36:27;;;;;;;4.15;3.85;;;;;;;14.85;55.59;101367.41;5071187;28;20024;-24
2022/08/12 04:38:53;;;;;;;5.30;3.90;;;;;;;14.85;55.73;101362.09;5085574;28;20028;-25
2022/08/12 04:41:19;;;;;;;3.92;3.50;;;;;;;14.82;55.96;101349.75;5057310;28;20389;-25
2022/08/12 04:43:45;;;;;;;3.85;3.45;;;;;;;14.85;55.64;101360.31;5083140;28;20025;-25
2022/08/12 04:46:11;;;;;;;4.30;3.90;;;;;;;14.83;56.13;101370.09;5074292;28;20032;-25
2022/08/12 04:48:36;;;;;;;3.83;3.47;;;;;;;14.88;55.47;101357.59;5078024;28;20036;-25
2022/08/12 04:51:02;;;;;;;3.47;3.17;;;;;;;14.84;55.90;101368.31;5083670;28;20056;-25
2022/08/12 04:53:27;;;;;;;4.80;3.63;;;;;;;14.84;55.72;101360.34;5046856;28;20467;-25
2022/08/12 04:55:53;;;;;;;5.60;3.83;;;;;;;14.82;55.94;101356.81;5048773;28;20063;-25
2022/08/12 04:58:20;;;;;;;3.83;3.53;;;;;;;14.81;55.88;101368.34;5072315;28;20024;-25
2022/08/12 05:00:45;;;;;;;3.72;3.30;;;;;;;14.80;55.81;101363.97;5054660;28;20040;-25
2022/08/12 05:03:11;;;;;;;4.18;3.67;;;;;;;14.80;55.74;101374.56;5072073;28;20025;-25
2022/08/12 05:05:39;;;;;;;3.10;2.90;;;;;;;14.81;55.54;101360.38;5072051;28;20467;-25
2022/08/12 05:08:10;;;;;;;4.13;3.50;;;;;;;14.85;55.49;101362.09;5054110;28;20506;-25
2022/08/12 05:10:35;;;;;;;4.00;3.45;;;;;;;14.88;55.65;101376.19;5053896;28;20202;-25
2022/08/12 05:13:04;;;;;;;3.83;3.50;;;;;;;14.87;55.52;101365.59;5071773;28;20040;-25
2022/08/12 05:15:30;;;;;;;6.85;4.65;;;;;;;14.87;55.58;101361.16;5046452;28;20553;-25
2022/08/12 05:17:55;;;;;;;3.83;3.40;;;;;;;14.91;55.63;101359.34;5033516;28;20025;-25
2022/08/12 05:20:21;;;;;;;4.25;3.85;;;;;;;14.88;55.40;101357.59;5051833;28;20072;-25
2022/08/12 05:22:46;;;;;;;3.83;3.50;;;;;;;14.94;55.34;101359.28;5051788;28;20396;-25
2022/08/12 05:25:14;;;;;;;3.85;3.53;;;;;;;14.95;55.36;101363.72;5051911;28;20381;-25
2022/08/12 05:27:40;;;;;;;4.50;3.30;;;;;;;14.95;55.63;101361.06;5051611;28;20368;-25
2022/08/12 05:30:06;;;;;;;4.57;3.95;;;;;;;15.03;55.07;101376.84;5053379;28;20051;-25
2022/08/12 05:32:31;;;;;;;4.40;3.88;;;;;;;15.04;55.21;101377.72;5052506;28;20041;-25
2022/08/12 05:34:57;;;;;;;3.75;3.45;;;;;;;15.09;55.00;101382.06;5033374;28;20043;-25
2022/08/12 05:37:22;;;;;;;3.95;3.65;;;;;;;15.14;55.41;101376.69;5051579;28;20032;-25
2022/08/12 05:39:48;;;;;;;3.22;3.03;;;;;;;15.18;55.22;101381.03;5051771;28;20024;-25
2022/08/12 05:42:13;;;;;;;4.10;3.72;;;;;;;15.24;55.26;101383.56;5051595;28;20114;-25
2022/08/12 05:44:39;;;;;;;3.75;3.45;;;;;;;15.34;54.63;101386.09;5051170;28;20029;-25
2022/08/12 05:47:05;;;;;;;3.85;3.38;;;;;;;15.35;55.11;101378.09;5047101;28;20470;-25
2022/08/12 05:49:33;;;;;;;3.92;3.63;;;;;;;15.42;54.74;101384.16;5051692;28;20100;-25
2022/08/12 05:51:59;;;;;;;3.70;3.40;;;;;;;15.48;54.71;101384.03;5033814;28;20414;-25
2022/08/12 05:54:24;;;;;;;4.90;4.40;;;;;;;15.57;54.83;101379.47;5051190;28;20025;-25
2022/08/12 05:56:50;;;;;;;3.95;3.58;;;;;;;15.69;54.49;101379.22;5054059;28;20035;-25
2022/08/12 05:59:16;;;;;;;4.43;3.70;;;;;;;15.75;54.44;101376.47;5055744;28;20033;-25
2022/08/12 06:01:41;;;;;;;6.88;3.50;;;;;;;15.81;54.21;101377.25;5074049;28;20058;-25
2022/08/12 06:04:08;;;;;;;4.68;3.45;;;;;;;15.87;54.04;101380.66;5073778;28;20028;-25
2022/08/12 06:06:40;;;;;;;4.15;3.85;;;;;;;15.92;54.08;101375.25;5055460;28;20025;-25
2022/08/12 06:09:08;;;;;;;4.05;3.65;;;;;;;15.98;53.99;101375.16;5055578;28;20029;-25
2022/08/12 06:11:34;;;;;;;4.82;4.35;;;;;;;16.04;54.12;101371.47;5055391;28;20032;-25
2022/08/12 06:13:59;;;;;;;3.70;3.17;;;;;;;16.11;53.92;101377.56;5055213;28;20024;-25
2022/08/12 06:16:25;;;;;;;4.03;3.60;;;;;;;16.20;53.88;101382.66;5055109;28;20028;-25
2022/08/12 06:18:50;;;;;;;4.03;3.67;;;;;;;16.28;53.77;101377.19;5055859;28;20120;-25
2022/08/12 06:21:20;;;;;;;3.75;3.45;;;;;;;16.38;53.76;101380.53;5061832;28;20089;-25
2022/08/12 06:23:46;;;;;;;4.60;4.20;;;;;;;16.47;53.68;101377.66;5037324;28;20102;-25
2022/08/12 06:26:15;;;;;;;4.78;3.60;;;;;;;16.56;53.78;101373.91;5055031;28;20036;-24
2022/08/12 06:28:44;;;;;;;4.03;3.65;;;;;;;16.63;54.00;101379.97;5068868;28;20021;-25
2022/08/12 06:31:16;;;;;;;3.65;3.35;;;;;;;16.72;53.74;101379.75;5056945;28;20471;-25
2022/08/12 06:33:43;;;;;;;4.32;3.92;;;;;;;16.84;53.41;101378.56;5074827;28;20481;-24
2022/08/12 06:36:12;;;;;;;4.18;3.85;;;;;;;16.92;53.73;101384.63;5075133;28;20046;-25
2022/08/12 06:38:39;;;;;;;4.32;3.60;;;;;;;17.03;53.34;101373.69;5072720;28;20024;-25
2022/08/12 06:43:50;;;;;;;3.95;3.65;;;;;;;17.23;53.35;101374.09;5054416;28;20444;-24
2022/08/12 06:46:16;;;;;;;4.13;3.83;;;;;;;17.33;53.30;101374.75;5063163;28;20481;-25
2022/08/12 06:48:42;;;;;;;3.63;3.33;;;;;;;17.44;53.04;101370.03;5071829;28;20040;-25
2022/08/12 06:51:08;;;;;;;4.50;4.10;;;;;;;17.57;53.05;101376.75;5074769;28;20024;-24
2022/08/12 06:53:33;;;;;;;6.28;3.90;;;;;;;17.67;52.77;101366.69;5074679;28;20081;-25
2022/08/12 06:55:59;;;;;;;4.93;4.15;;;;;;;17.81;52.67;101376.97;5056488;28;20107;-24
2022/08/12 06:58:28;;;;;;;3.63;3.33;;;;;;;17.95;52.73;101378.38;5074450;28;20355;-25
2022/08/12 07:00:56;;;;;;;5.20;3.63;;;;;;;18.10;52.85;101371.75;5074388;28;20159;-25
2022/08/12 07:03:28;;;;;;;5.28;3.80;;;;;;;18.26;52.47;101379.28;5058595;28;20028;-25
2022/08/12 07:05:55;;;;;;;5.20;4.10;;;;;;;18.41;52.47;101380.63;5054790;28;20102;-24
2022/08/12 07:08:22;;;;;;;8.65;3.95;;;;;;;18.56;52.50;101365.91;5073624;28;20024;-25
2022/08/12 07:10:52;;;;;;;5.80;4.18;;;;;;;18.70;52.49;101365.47;5056122;28;20028;-24
2022/08/12 07:13:17;;;;;;;4.20;3.78;;;;;;;18.85;52.17;101369.47;5035888;28;20039;-25
2022/08/12 07:15:44;;;;;;;3.88;3.47;;;;;;;19.02;51.79;101357.31;5054230;28;20374;-25
2022/08/12 07:18:18;;;;;;;5.45;3.83;;;;;;;19.19;51.91;101365.69;5054127;28;20434;-25
2022/08/12 07:20:49;;;;;;;4.68;3.45;;;;;;;19.34;51.76;101361.59;5054319;28;20036;-25
2022/08/12 07:23:16;;;;;;;4.93;3.80;;;;;;;19.53;51.50;101368.97;5035756;28;20060;-24
2022/08/12 07:25:42;;;;;;;3.92;3.63;;;;;;;19.69;51.25;101366.63;5054528;28;20059;-24
2022/08/12 07:28:07;;;;;;;3.72;3.40;;;;;;;19.86;51.41;101362.44;5059972;28;20029;-25
2022/08/12 07:30:36;;;;;;;3.40;3.10;;;;;;;20.02;50.94;101354.72;5054058;28;20044;-25
2022/08/12 07:33:03;;;;;;;4.63;2.80;;;;;;;20.24;50.77;101360.13;5035759;28;20720;-24
2022/08/12 07:35:30;;;;;;;4.40;3.22;;;;;;;20.42;50.45;101359.47;5053915;28;20075;-25
2022/08/12 07:37:56;;;;;;;5.53;3.03;;;;;;;20.57;50.30;101369.56;5053978;28;20040;-24
2022/08/12 07:40:23;;;;;;;4.55;2.95;;;;;;;20.69;50.04;101361.97;5053827;28;20049;-25
2022/08/12 07:42:49;;;;;;;3.90;3.13;;;;;;;20.74;49.86;101359.97;5053794;28;20159;-24
2022/08/12 07:45:16;;;;;;;3.53;3.10;;;;;;;21.00;49.75;101358.03;5053678;28;20515;-25
2022/08/12 07:47:42;;;;;;;5.03;3.15;;;;;;;21.15;49.51;101353.84;5053859;28;20116;-24
2022/08/12 07:50:09;;;;;;;5.20;2.92;;;;;;;21.28;49.52;101359.53;5054325;28;20037;-24
2022/08/12 07:52:39;;;;;;;4.43;3.05;;;;;;;21.42;49.53;101356.25;5053471;28;20079;-24
2022/08/12 07:55:06;;;;;;;3.55;2.78;;;;;;;21.56;49.14;101366.38;5053572;28;20463;-24
2022/08/12 07:57:31;;;;;;;7.35;3.67;;;;;;;21.74;48.75;101363.84;5053212;28;20040;-24
2022/08/12 08:00:02;;;;;;;5.97;3.47;;;;;;;21.84;48.59;101357.09;5053352;28;20025;-24
2022/08/12 08:02:28;;;;;;;4.35;2.75;;;;;;;22.02;48.51;101357.19;5053522;28;20025;-24
2022/08/12 08:04:56;;;;;;;4.07;3.00;;;;;;;22.22;48.60;101361.63;5052932;28;20025;-24
2022/08/12 08:07:23;;;;;;;6.00;3.20;;;;;;;22.32;48.00;101372.78;5053246;28;20107;-25
2022/08/12 08:09:48;;;;;;;4.05;3.10;;;;;;;22.41;47.66;101353.53;5053160;28;20099;-24
2022/08/12 08:14:58;;;;;;;7.55;2.67;;;;;;;22.78;46.39;101369.69;5053024;28;20028;-24
2022/08/12 08:17:24;;;;;;;6.00;2.33;;;;;;;22.85;46.28;101364.91;5055121;28;20029;-24
2022/08/12 08:19:54;;;;;;;5.53;2.50;;;;;;;22.97;46.88;101357.16;5071976;28;20030;-24
2022/08/12 08:22:20;;;;;;;8.20;3.10;;;;;;;23.02;46.55;101355.09;5072959;28;20028;-24
2022/08/12 08:24:45;;;;;;;9.95;3.30;;;;;;;23.11;45.49;101354.59;5054754;28;20356;-24
2022/08/12 08:27:11;;;;;;;5.25;3.00;;;;;;;23.33;45.66;101353.50;5072990;28;20086;-24
2022/08/12 08:29:36;;;;;;;8.23;3.20;;;;;;;23.50;44.33;101357.19;5072951;28;20028;-24
2022/08/12 08:32:06;;;;;;;3.30;2.25;;;;;;;23.56;43.50;101356.84;5064721;28;20485;-24
2022/08/12 08:34:34;;;;;;;3.77;1.70;;;;;;;23.80;43.80;101356.44;5052542;28;20027;-24
2022/08/12 08:36:59;;;;;;;4.20;2.20;;;;;;;23.96;42.90;101357.38;5052666;28;20490;-24
2022/08/12 08:39:26;;;;;;;3.80;1.73;;;;;;;23.94;42.52;101359.25;5052333;28;20025;-24
2022/08/12 08:44:39;;;;;;;2.97;1.50;;;;;;;24.43;42.27;101349.41;5036962;28;20040;-24
2022/08/12 08:47:05;;;;;;;2.97;1.90;;;;;;;24.46;42.42;101353.75;5053156;28;20094;-24
2022/08/12 08:49:31;;;;;;;5.82;2.00;;;;;;;24.45;41.24;101352.88;5052842;28;20029;-24
2022/08/12 08:51:56;;;;;;;2.47;1.65;;;;;;;24.69;40.44;101354.25;5051501;28;20027;-24
2022/08/12 08:54:23;;;;;;;3.90;1.85;;;;;;;24.79;41.05;101354.56;5051893;28;20436;-24
2022/08/12 08:56:49;;;;;;;2.33;1.70;;;;;;;24.92;40.35;101352.94;5034919;28;20172;-24
2022/08/12 08:59:15;;;;;;;2.45;1.63;;;;;;;25.08;40.89;101354.72;5018258;28;20078;-24
2022/08/12 09:01:42;;;;;;;1.88;1.77;;;;;;;25.20;39.69;101343.16;5053417;28;20399;-24
2022/08/12 09:04:09;;;;;;;2.83;1.63;;;;;;;25.31;39.94;101357.84;5052336;28;20028;-24
2022/08/12 09:06:38;;;;;;;5.43;2.30;;;;;;;25.44;39.69;101352.56;5052250;28;20110;-24
2022/08/12 09:09:04;;;;;;;1.75;1.65;;;;;;;25.57;39.39;101347.28;5052332;28;20052;-24
2022/08/12 09:14:13;;;;;;;4.13;1.83;;;;;;;25.80;38.86;101345.84;5066177;28;20036;-24
2022/08/12 09:16:39;;;;;;;2.17;1.45;;;;;;;25.91;38.88;101358.66;5072204;28;20016;-24
2022/08/12 09:19:06;;;;;;;2.17;1.65;;;;;;;26.10;37.74;101350.25;5071777;28;20401;-24
2022/08/12 09:21:32;;;;;;;4.22;2.00;;;;;;;25.98;38.83;101354.59;5071838;28;20043;-24
2022/08/12 09:23:59;;;;;;;4.10;2.45;;;;;;;25.98;39.05;101354.59;5071729;28;20016;-24
2022/08/12 09:26:27;;;;;;;4.10;2.42;;;;;;;26.07;38.75;101363.13;5070865;28;20036;-24
2022/08/12 09:28:53;;;;;;;6.38;2.88;;;;;;;26.21;38.26;101354.97;5071617;28;20420;-24
2022/08/12 09:31:19;;;;;;;4.72;1.92;;;;;;;26.35;37.18;101345.13;5071723;28;20021;-24
2022/08/12 09:33:44;;;;;;;3.17;1.52;;;;;;;26.43;37.90;101342.78;5071515;28;20031;-24
2022/08/12 09:36:09;;;;;;;4.68;2.20;;;;;;;26.57;38.39;101349.97;5059731;28;20021;-24
2022/08/12 09:38:35;;;;;;;5.65;2.22;;;;;;;26.71;37.65;101342.78;5051458;28;20028;-24
2022/08/12 09:41:00;;;;;;;4.00;1.65;;;;;;;26.82;37.35;101337.50;5033733;28;20060;-24
2022/08/12 09:46:15;;;;;;;7.00;1.80;;;;;;;27.06;37.14;101333.22;5051521;28;20083;-24
2022/08/12 09:48:40;;;;;;;3.28;1.50;;;;;;;27.21;36.36;101332.16;5051538;28;20025;-24
2022/08/12 09:51:07;;;;;;;3.30;1.73;;;;;;;27.17;36.23;101340.63;5051600;28;20025;-24
2022/08/12 09:53:33;;;;;;;3.35;1.65;;;;;;;27.03;35.61;101335.19;5033301;28;20076;-24
2022/08/12 09:55:58;;;;;;;2.22;1.58;;;;;;;27.34;36.38;101336.75;5051869;28;20017;-24
2022/08/12 09:58:28;;;;;;;4.70;1.60;;;;;;;27.46;36.45;101319.63;5049350;28;20035;-24
2022/08/12 10:00:56;;;;;;;5.68;2.15;;;;;;;27.49;36.43;101323.94;5071113;28;20059;-24
2022/08/12 10:03:25;;;;;;;5.45;2.25;;;;;;;27.70;36.66;101315.31;5068451;28;20219;-24
2022/08/12 10:05:52;;;;;;;2.87;1.80;;;;;;;27.88;36.44;101318.53;5051102;28;20486;-24
2022/08/12 10:08:18;;;;;;;2.65;1.23;;;;;;;27.83;34.88;101315.25;5045019;28;20080;-24
2022/08/12 10:13:40;;;;;;;5.25;1.55;;;;;;;28.09;35.53;101320.63;5071374;28;20043;-24
2022/08/12 10:16:06;;;;;;;2.40;1.50;;;;;;;28.21;35.55;101319.69;5071370;28;20082;-24
2022/08/12 10:18:36;;;;;;;2.67;1.33;;;;;;;28.18;34.20;101314.53;5066026;28;20391;-24
2022/08/12 10:21:16;;;;;;;2.60;1.30;;;;;;;28.30;34.43;101313.63;5070452;28;20043;-24
2022/08/12 10:23:46;;;;;;;5.60;1.93;;;;;;;28.31;34.26;101317.22;5050879;28;20504;-24
2022/08/12 10:31:44;;;;;;;3.75;1.42;;;;;;;28.59;33.85;101306.13;5071330;28;20040;-24
2022/08/12 10:34:12;;;;;;;2.83;1.40;;;;;;;28.73;33.85;101305.94;5070776;28;20055;-24
2022/08/12 10:36:38;;;;;;;1.60;1.25;;;;;;;28.69;33.46;101302.59;5070955;28;20056;-24
2022/08/12 10:39:05;;;;;;;1.35;1.20;;;;;;;28.70;34.05;101298.03;5070992;28;20040;-24
2022/08/12 10:44:14;;;;;;;3.42;1.40;;;;;;;29.03;34.19;101291.00;5054587;28;20036;-24
2022/08/12 10:46:41;;;;;;;2.03;1.35;;;;;;;29.17;33.74;101300.75;5054730;28;20395;-24
2022/08/12 10:49:07;;;;;;;1.95;1.65;;;;;;;29.18;33.56;101288.06;5037879;28;20021;-24
2022/08/12 10:51:32;;;;;;;3.13;1.80;;;;;;;29.24;33.88;101284.00;5054657;28;20036;-24
2022/08/12 10:53:58;;;;;;;1.50;1.30;;;;;;;29.25;33.06;101291.16;5054069;28;20044;-24
2022/08/12 10:56:23;;;;;;;2.00;1.80;;;;;;;29.28;33.26;101285.47;5054345;28;20513;-24
2022/08/12 10:58:48;;;;;;;1.42;1.20;;;;;;;29.28;34.02;101274.63;5054446;28;20032;-24
2022/08/12 11:01:15;;;;;;;1.40;1.30;;;;;;;29.49;33.31;101276.59;5054393;28;20028;-24
2022/08/12 11:03:40;;;;;;;2.88;1.70;;;;;;;29.61;33.83;101275.66;5072872;28;20077;-24
2022/08/12 11:06:08;;;;;;;4.30;2.00;;;;;;;29.64;33.62;101277.25;5073918;28;20032;-24
2022/08/12 11:08:36;;;;;;;4.75;1.92;;;;;;;29.69;33.00;101264.13;5074490;28;20482;-24
2022/08/12 11:11:07;;;;;;;3.95;2.20;;;;;;;29.72;33.21;101266.59;5055971;28;20025;-24
2022/08/12 11:13:32;;;;;;;;;;;;;;;29.72;33.31;101250.31;5054660;28;20033;-24
2022/08/12 11:15:57;;;;;;;7.03;2.97;;;;;;;29.64;33.23;101260.94;5054277;28;20007;-24
2022/08/12 11:18:23;;;;;;;4.78;2.60;;;;;;;29.86;33.34;101259.16;5053948;28;20032;-24
2022/08/12 11:20:49;;;;;;;5.18;2.20;;;;;;;29.96;33.20;101262.84;5035888;28;20060;-24
2022/08/12 11:23:14;;;;;;;4.35;1.85;;;;;;;30.06;32.55;101262.94;5055901;28;20081;-24
2022/08/12 11:25:42;;;;;;;4.18;2.00;;;;;;;30.17;32.75;101262.94;5056027;28;20024;-24
2022/08/12 11:28:08;;;;;;;3.60;2.00;;;;;;;30.19;32.72;101262.81;5055925;28;20043;-24
2022/08/12 11:30:33;;;;;;;4.07;1.95;;;;;;;30.14;31.64;101255.03;5074340;28;20462;-24
2022/08/12 11:32:58;;;;;;;2.55;1.75;;;;;;;30.08;31.59;101256.38;5073261;28;20149;-24
2022/08/12 11:35:24;;;;;;;2.58;1.65;;;;;;;30.18;31.84;101248.34;5073743;28;20020;-24
2022/08/12 11:37:49;;;;;;;3.83;1.50;;;;;;;30.19;31.54;101246.50;5066323;28;20503;-24
2022/08/12 11:40:14;;;;;;;1.70;1.45;;;;;;;30.39;30.78;101242.09;5054816;28;20028;-24
2022/08/12 11:42:40;;;;;;;1.98;1.70;;;;;;;30.41;31.35;101241.97;5053695;28;20025;-24
2022/08/12 11:45:05;;;;;;;1.52;1.42;;;;;;;30.51;31.76;101242.03;5053441;28;20143;-24
2022/08/12 11:47:31;;;;;;;2.47;1.40;;;;;;;30.47;31.37;101238.69;5053474;28;20066;-24
2022/08/12 11:49:56;;;;;;;2.03;1.63;;;;;;;30.42;31.27;101235.50;5053677;28;20685;-24
2022/08/12 11:52:21;;;;;;;5.50;2.60;;;;;;;30.51;31.95;101226.56;5053474;28;20031;-24
2022/08/12 11:54:47;;;;;;;7.57;2.90;;;;;;;30.45;31.70;101225.22;5053061;28;20024;-24
2022/08/12 11:57:12;;;;;;;7.97;3.13;;;;;;;30.49;31.71;101220.41;5053298;28;20025;-24
2022/08/12 11:59:37;;;;;;;5.43;2.53;;;;;;;30.59;30.78;101228.63;5053294;28;20028;-24
2022/08/12 12:02:03;;;;;;;4.80;2.20;;;;;;;30.59;30.53;101239.50;5053233;28;20027;-24
2022/08/12 12:04:28;;;;;;;3.25;1.80;;;;;;;30.71;30.58;101226.72;5052882;28;20111;-24
2022/08/12 12:06:54;;;;;;;6.00;2.55;;;;;;;30.75;30.18;101219.16;5053209;28;20361;-24
2022/08/12 12:09:19;;;;;;;2.90;1.75;;;;;;;30.91;31.40;101207.78;5053559;28;20035;-23
2022/08/12 12:11:44;;;;;;;4.53;1.70;;;;;;;31.02;30.88;101221.31;5035226;28;20493;-24
2022/08/12 12:14:09;;;;;;;2.88;1.80;;;;;;;31.09;31.12;101203.44;5052945;28;20107;-24
2022/08/12 12:16:36;;;;;;;2.63;1.80;;;;;;;31.08;30.80;101204.44;5052805;28;20025;-24
2022/08/12 12:19:01;;;;;;;4.95;2.20;;;;;;;30.98;31.30;101209.81;5056434;28;20029;-24
2022/08/12 12:21:27;;;;;;;4.63;2.15;;;;;;;31.08;31.48;101212.59;5066611;28;20123;-24
2022/08/12 12:23:53;;;;;;;11.13;3.42;;;;;;;30.94;32.30;101207.53;5067424;28;20453;-24
2022/08/12 12:26:18;;;;;;;11.45;4.30;;;;;;;30.90;32.16;101217.81;5035048;28;20467;-24
2022/08/12 12:28:44;;;;;;;9.88;2.80;;;;;;;31.03;31.11;101216.72;5052704;28;20029;-24
2022/08/12 12:31:09;;;;;;;7.80;2.80;;;;;;;31.13;30.11;101208.63;5053304;28;20035;-24
2022/08/12 12:33:34;;;;;;;4.18;2.05;;;;;;;31.32;29.65;101200.53;5055814;28;20551;-24
2022/08/12 12:36:00;;;;;;;4.88;2.10;;;;;;;31.32;30.77;101197.81;5059781;28;20082;-24
2022/08/12 12:38:25;;;;;;;4.38;2.33;;;;;;;31.36;29.96;101199.28;5072705;28;20024;-24
2022/08/12 12:40:51;;;;;;;4.35;1.83;;;;;;;31.36;29.77;101191.09;5072580;28;20029;-24
2022/08/12 12:43:17;;;;;;;3.95;1.90;;;;;;;31.39;30.57;101192.69;5056822;28;20059;-24
2022/08/12 12:45:43;;;;;;;3.70;2.15;;;;;;;31.58;31.64;101193.75;5052282;28;20035;-24
2022/08/12 12:48:09;;;;;;;11.40;3.22;;;;;;;31.28;30.81;101192.75;5052312;28;20029;-24
2022/08/12 12:50:43;;;;;;;10.70;3.30;;;;;;;31.38;31.15;101179.19;5034067;28;20032;-24
2022/08/12 12:53:11;;;;;;;12.77;3.55;;;;;;;31.53;31.55;101188.69;5034414;28;20025;-24
2022/08/12 12:55:37;;;;;;;12.55;3.90;;;;;;;31.62;31.06;101200.63;5052262;28;20035;-24
2022/08/12 12:58:10;;;;;;;10.05;3.65;;;;;;;31.59;30.98;101190.88;5052076;28;20052;-24
2022/08/12 13:00:39;;;;;;;10.55;2.80;;;;;;;31.55;30.10;101199.47;5051754;28;20459;-24
2022/08/12 13:03:05;;;;;;;7.40;2.70;;;;;;;31.29;29.63;101192.63;5052290;28;20031;-24
2022/08/12 13:05:35;;;;;;;3.50;2.33;;;;;;;31.45;29.52;101183.97;5053587;28;20032;-24
2022/08/12 13:08:01;;;;;;;;;;;;;;;31.39;29.87;101184.50;5082204;28;20031;-24
2022/08/12 13:10:28;;;;;;;5.63;2.28;;;;;;;31.51;31.04;101182.53;5071737;28;19919;-24
2022/08/12 13:12:54;;;;;;;11.50;3.40;;;;;;;31.44;30.65;101175.94;5068879;28;20229;-24
2022/08/12 13:15:20;;;;;;;10.88;3.53;;;;;;;31.60;30.73;101181.69;5051681;28;20029;-24